sensor_id;sensor_type;location;lat;lon;timestamp;P1;durP1;ratioP1;P2;durP2;ratioP2
74551;SDS011;63025;55.472;38.432;2022-10-16T00:01:14;54.75;;;26.70;;
74551;SDS011;63025;55.472;38.432;2022-10-16T00:03:42;56.85;;;24.80;;
74551;SDS011;63025;55.472;38.432;2022-10-16T00:06:09;56.45;;;28.77;;
74551;SDS011;63025;55.472;38.432;2022-10-16T00:08:36;55.83;;;25.15;;
74551;SDS011;63025;55.472;38.432;2022-10-16T00:11:07;64.75;;;31.95;;
74551;SDS011;63025;55.472;38.432;2022-10-16T00:13:36;59.33;;;30.77;;
74551;SDS011;63025;55.472;38.432;2022-10-16T00:16:04;58.08;;;29.50;;
74551;SDS011;63025;55.472;38.432;2022-10-16T00:18:31;55.10;;;27.58;;
74551;SDS011;63025;55.472;38.432;2022-10-16T00:21:14;58.88;;;29.35;;
74551;SDS011;63025;55.472;38.432;2022-10-16T00:24:04;59.08;;;28.13;;
74551;SDS011;63025;55.472;38.432;2022-10-16T00:26:34;55.78;;;27.27;;
74551;SDS011;63025;55.472;38.432;2022-10-16T00:29:00;62.78;;;28.25;;
74551;SDS011;63025;55.472;38.432;2022-10-16T00:31:26;62.88;;;28.58;;
74551;SDS011;63025;55.472;38.432;2022-10-16T00:33:53;58.20;;;27.80;;
74551;SDS011;63025;55.472;38.432;2022-10-16T00:36:19;60.05;;;27.17;;
74551;SDS011;63025;55.472;38.432;2022-10-16T00:38:49;60.13;;;27.10;;
74551;SDS011;63025;55.472;38.432;2022-10-16T00:41:18;66.65;;;30.10;;
74551;SDS011;63025;55.472;38.432;2022-10-16T00:43:49;61.35;;;26.77;;
74551;SDS011;63025;55.472;38.432;2022-10-16T00:46:21;59.95;;;29.45;;
74551;SDS011;63025;55.472;38.432;2022-10-16T00:51:25;64.82;;;29.17;;
74551;SDS011;63025;55.472;38.432;2022-10-16T00:53:58;55.17;;;26.63;;
74551;SDS011;63025;55.472;38.432;2022-10-16T00:56:25;64.20;;;28.58;;
74551;SDS011;63025;55.472;38.432;2022-10-16T00:58:51;59.83;;;28.15;;
74551;SDS011;63025;55.472;38.432;2022-10-16T01:01:17;72.18;;;32.80;;
74551;SDS011;63025;55.472;38.432;2022-10-16T01:03:43;58.63;;;27.33;;
74551;SDS011;63025;55.472;38.432;2022-10-16T01:06:18;54.60;;;25.77;;
74551;SDS011;63025;55.472;38.432;2022-10-16T01:11:34;55.75;;;27.35;;
74551;SDS011;63025;55.472;38.432;2022-10-16T01:14:13;49.22;;;24.45;;
74551;SDS011;63025;55.472;38.432;2022-10-16T01:16:49;53.72;;;23.98;;
74551;SDS011;63025;55.472;38.432;2022-10-16T01:19:40;55.85;;;27.25;;
74551;SDS011;63025;55.472;38.432;2022-10-16T01:22:19;44.35;;;22.90;;
74551;SDS011;63025;55.472;38.432;2022-10-16T01:24:48;48.28;;;21.85;;
74551;SDS011;63025;55.472;38.432;2022-10-16T01:27:18;51.05;;;22.17;;
74551;SDS011;63025;55.472;38.432;2022-10-16T01:30:02;52.47;;;23.20;;
74551;SDS011;63025;55.472;38.432;2022-10-16T01:32:40;42.75;;;20.40;;
74551;SDS011;63025;55.472;38.432;2022-10-16T01:35:14;46.13;;;20.30;;
74551;SDS011;63025;55.472;38.432;2022-10-16T01:37:50;44.28;;;19.00;;
74551;SDS011;63025;55.472;38.432;2022-10-16T01:40:17;41.58;;;20.17;;
74551;SDS011;63025;55.472;38.432;2022-10-16T01:42:50;38.30;;;17.50;;
74551;SDS011;63025;55.472;38.432;2022-10-16T01:45:22;40.85;;;19.35;;
74551;SDS011;63025;55.472;38.432;2022-10-16T01:47:48;40.97;;;19.30;;
74551;SDS011;63025;55.472;38.432;2022-10-16T01:50:17;33.33;;;18.08;;
74551;SDS011;63025;55.472;38.432;2022-10-16T01:52:47;38.05;;;18.05;;
74551;SDS011;63025;55.472;38.432;2022-10-16T01:55:17;35.10;;;18.48;;
74551;SDS011;63025;55.472;38.432;2022-10-16T01:57:47;33.35;;;15.95;;
74551;SDS011;63025;55.472;38.432;2022-10-16T02:00:17;34.85;;;17.17;;
74551;SDS011;63025;55.472;38.432;2022-10-16T02:02:47;30.02;;;16.50;;
74551;SDS011;63025;55.472;38.432;2022-10-16T02:07:59;29.17;;;15.55;;
74551;SDS011;63025;55.472;38.432;2022-10-16T02:10:25;30.40;;;15.80;;
74551;SDS011;63025;55.472;38.432;2022-10-16T02:13:29;26.05;;;13.80;;
74551;SDS011;63025;55.472;38.432;2022-10-16T02:15:51;27.25;;;13.52;;
74551;SDS011;63025;55.472;38.432;2022-10-16T02:18:20;30.20;;;14.23;;
74551;SDS011;63025;55.472;38.432;2022-10-16T02:20:55;24.77;;;13.35;;
74551;SDS011;63025;55.472;38.432;2022-10-16T02:23:45;55.92;;;24.40;;
74551;SDS011;63025;55.472;38.432;2022-10-16T02:26:23;33.40;;;16.90;;
74551;SDS011;63025;55.472;38.432;2022-10-16T02:29:12;32.40;;;14.77;;
74551;SDS011;63025;55.472;38.432;2022-10-16T02:31:43;37.17;;;17.13;;
74551;SDS011;63025;55.472;38.432;2022-10-16T02:34:14;40.10;;;18.15;;
74551;SDS011;63025;55.472;38.432;2022-10-16T02:36:41;45.60;;;19.40;;
74551;SDS011;63025;55.472;38.432;2022-10-16T02:39:09;53.33;;;21.48;;
74551;SDS011;63025;55.472;38.432;2022-10-16T02:41:36;49.28;;;20.67;;
74551;SDS011;63025;55.472;38.432;2022-10-16T02:44:02;49.70;;;19.98;;
74551;SDS011;63025;55.472;38.432;2022-10-16T02:46:28;51.50;;;21.50;;
74551;SDS011;63025;55.472;38.432;2022-10-16T02:48:54;66.53;;;24.63;;
74551;SDS011;63025;55.472;38.432;2022-10-16T02:51:19;64.45;;;25.38;;
74551;SDS011;63025;55.472;38.432;2022-10-16T02:53:45;61.80;;;24.88;;
74551;SDS011;63025;55.472;38.432;2022-10-16T02:56:11;50.97;;;19.77;;
74551;SDS011;63025;55.472;38.432;2022-10-16T02:58:37;54.28;;;22.63;;
74551;SDS011;63025;55.472;38.432;2022-10-16T03:01:03;52.03;;;20.52;;
74551;SDS011;63025;55.472;38.432;2022-10-16T03:03:29;49.40;;;21.30;;
74551;SDS011;63025;55.472;38.432;2022-10-16T03:05:55;50.40;;;20.55;;
74551;SDS011;63025;55.472;38.432;2022-10-16T03:08:21;52.78;;;21.55;;
74551;SDS011;63025;55.472;38.432;2022-10-16T03:10:49;44.92;;;19.92;;
74551;SDS011;63025;55.472;38.432;2022-10-16T03:13:15;50.85;;;20.23;;
74551;SDS011;63025;55.472;38.432;2022-10-16T03:15:41;35.83;;;14.25;;
74551;SDS011;63025;55.472;38.432;2022-10-16T03:18:07;38.70;;;16.95;;
74551;SDS011;63025;55.472;38.432;2022-10-16T03:20:33;36.58;;;16.48;;
74551;SDS011;63025;55.472;38.432;2022-10-16T03:22:59;33.85;;;14.70;;
74551;SDS011;63025;55.472;38.432;2022-10-16T03:25:24;36.85;;;15.20;;
74551;SDS011;63025;55.472;38.432;2022-10-16T03:27:50;35.40;;;16.38;;
74551;SDS011;63025;55.472;38.432;2022-10-16T03:30:16;37.92;;;16.67;;
74551;SDS011;63025;55.472;38.432;2022-10-16T03:32:43;37.42;;;16.23;;
74551;SDS011;63025;55.472;38.432;2022-10-16T03:35:10;30.00;;;14.75;;
74551;SDS011;63025;55.472;38.432;2022-10-16T03:37:36;19.85;;;11.00;;
74551;SDS011;63025;55.472;38.432;2022-10-16T03:40:02;23.33;;;12.32;;
74551;SDS011;63025;55.472;38.432;2022-10-16T03:42:29;24.10;;;11.65;;
74551;SDS011;63025;55.472;38.432;2022-10-16T03:44:55;26.05;;;11.90;;
74551;SDS011;63025;55.472;38.432;2022-10-16T03:47:21;22.15;;;11.27;;
74551;SDS011;63025;55.472;38.432;2022-10-16T03:49:49;25.55;;;12.07;;
74551;SDS011;63025;55.472;38.432;2022-10-16T03:52:15;24.17;;;11.05;;
74551;SDS011;63025;55.472;38.432;2022-10-16T03:54:41;21.02;;;10.27;;
74551;SDS011;63025;55.472;38.432;2022-10-16T03:57:07;18.13;;;9.88;;
74551;SDS011;63025;55.472;38.432;2022-10-16T03:59:33;20.60;;;10.23;;
74551;SDS011;63025;55.472;38.432;2022-10-16T04:01:59;17.55;;;8.65;;
74551;SDS011;63025;55.472;38.432;2022-10-16T04:04:25;14.10;;;7.35;;
74551;SDS011;63025;55.472;38.432;2022-10-16T04:06:51;18.38;;;8.15;;
74551;SDS011;63025;55.472;38.432;2022-10-16T04:09:17;15.23;;;8.15;;
74551;SDS011;63025;55.472;38.432;2022-10-16T04:11:43;15.43;;;8.50;;
74551;SDS011;63025;55.472;38.432;2022-10-16T04:14:08;15.43;;;7.85;;
74551;SDS011;63025;55.472;38.432;2022-10-16T04:16:34;12.35;;;7.30;;
74551;SDS011;63025;55.472;38.432;2022-10-16T04:19:00;19.02;;;8.27;;
74551;SDS011;63025;55.472;38.432;2022-10-16T04:21:26;16.17;;;7.28;;
74551;SDS011;63025;55.472;38.432;2022-10-16T04:23:52;11.80;;;7.45;;
74551;SDS011;63025;55.472;38.432;2022-10-16T04:26:18;16.45;;;7.43;;
74551;SDS011;63025;55.472;38.432;2022-10-16T04:28:43;12.80;;;7.35;;
74551;SDS011;63025;55.472;38.432;2022-10-16T04:31:09;14.90;;;6.47;;
74551;SDS011;63025;55.472;38.432;2022-10-16T04:33:35;12.82;;;6.22;;
74551;SDS011;63025;55.472;38.432;2022-10-16T04:36:01;12.23;;;6.95;;
74551;SDS011;63025;55.472;38.432;2022-10-16T04:38:28;15.43;;;8.85;;
74551;SDS011;63025;55.472;38.432;2022-10-16T04:40:55;12.70;;;7.38;;
74551;SDS011;63025;55.472;38.432;2022-10-16T04:43:21;21.10;;;10.75;;
74551;SDS011;63025;55.472;38.432;2022-10-16T04:45:50;17.70;;;10.88;;
74551;SDS011;63025;55.472;38.432;2022-10-16T04:48:16;27.08;;;12.88;;
74551;SDS011;63025;55.472;38.432;2022-10-16T04:50:43;36.28;;;21.75;;
74551;SDS011;63025;55.472;38.432;2022-10-16T04:53:08;35.28;;;21.83;;
74551;SDS011;63025;55.472;38.432;2022-10-16T04:55:34;34.72;;;19.27;;
74551;SDS011;63025;55.472;38.432;2022-10-16T04:58:00;27.75;;;17.90;;
74551;SDS011;63025;55.472;38.432;2022-10-16T05:00:26;29.05;;;18.05;;
74551;SDS011;63025;55.472;38.432;2022-10-16T05:02:52;30.27;;;16.92;;
74551;SDS011;63025;55.472;38.432;2022-10-16T05:05:18;24.35;;;15.35;;
74551;SDS011;63025;55.472;38.432;2022-10-16T05:07:45;22.73;;;14.10;;
74551;SDS011;63025;55.472;38.432;2022-10-16T05:10:11;21.38;;;13.55;;
74551;SDS011;63025;55.472;38.432;2022-10-16T05:12:37;22.83;;;13.40;;
74551;SDS011;63025;55.472;38.432;2022-10-16T05:15:03;23.17;;;13.85;;
74551;SDS011;63025;55.472;38.432;2022-10-16T05:17:30;20.98;;;11.90;;
74551;SDS011;63025;55.472;38.432;2022-10-16T05:19:56;20.42;;;12.15;;
74551;SDS011;63025;55.472;38.432;2022-10-16T05:22:21;22.45;;;11.85;;
74551;SDS011;63025;55.472;38.432;2022-10-16T05:24:47;26.02;;;15.30;;
74551;SDS011;63025;55.472;38.432;2022-10-16T05:27:13;25.15;;;13.32;;
74551;SDS011;63025;55.472;38.432;2022-10-16T05:29:47;57.88;;;23.23;;
74551;SDS011;63025;55.472;38.432;2022-10-16T05:32:14;65.25;;;28.83;;
74551;SDS011;63025;55.472;38.432;2022-10-16T05:34:41;78.78;;;32.45;;
74551;SDS011;63025;55.472;38.432;2022-10-16T05:37:07;215.73;;;86.35;;
74551;SDS011;63025;55.472;38.432;2022-10-16T05:39:34;42.58;;;19.45;;
74551;SDS011;63025;55.472;38.432;2022-10-16T05:42:02;45.78;;;21.02;;
74551;SDS011;63025;55.472;38.432;2022-10-16T05:44:28;22.08;;;9.13;;
74551;SDS011;63025;55.472;38.432;2022-10-16T05:46:54;42.13;;;18.48;;
74551;SDS011;63025;55.472;38.432;2022-10-16T05:49:20;10.60;;;6.35;;
74551;SDS011;63025;55.472;38.432;2022-10-16T05:51:46;9.55;;;4.80;;
74551;SDS011;63025;55.472;38.432;2022-10-16T05:54:11;9.75;;;5.13;;
74551;SDS011;63025;55.472;38.432;2022-10-16T05:56:37;9.93;;;5.35;;
74551;SDS011;63025;55.472;38.432;2022-10-16T05:59:04;41.75;;;18.95;;
74551;SDS011;63025;55.472;38.432;2022-10-16T06:01:30;17.90;;;5.65;;
74551;SDS011;63025;55.472;38.432;2022-10-16T06:03:56;12.73;;;5.80;;
74551;SDS011;63025;55.472;38.432;2022-10-16T06:06:24;10.90;;;6.35;;
74551;SDS011;63025;55.472;38.432;2022-10-16T06:08:52;10.43;;;6.55;;
74551;SDS011;63025;55.472;38.432;2022-10-16T06:11:21;19.92;;;7.15;;
74551;SDS011;63025;55.472;38.432;2022-10-16T06:13:50;11.13;;;6.03;;
74551;SDS011;63025;55.472;38.432;2022-10-16T06:16:20;8.00;;;4.85;;
74551;SDS011;63025;55.472;38.432;2022-10-16T06:18:46;16.65;;;9.18;;
74551;SDS011;63025;55.472;38.432;2022-10-16T06:21:20;13.00;;;8.77;;
74551;SDS011;63025;55.472;38.432;2022-10-16T06:23:50;14.93;;;10.32;;
74551;SDS011;63025;55.472;38.432;2022-10-16T06:26:17;11.50;;;7.93;;
74551;SDS011;63025;55.472;38.432;2022-10-16T06:28:45;11.10;;;6.50;;
74551;SDS011;63025;55.472;38.432;2022-10-16T06:31:11;10.63;;;4.85;;
74551;SDS011;63025;55.472;38.432;2022-10-16T06:33:38;6.95;;;4.10;;
74551;SDS011;63025;55.472;38.432;2022-10-16T06:36:06;10.85;;;4.75;;
74551;SDS011;63025;55.472;38.432;2022-10-16T06:38:37;12.65;;;5.05;;
74551;SDS011;63025;55.472;38.432;2022-10-16T06:41:03;9.95;;;4.30;;
74551;SDS011;63025;55.472;38.432;2022-10-16T06:43:30;6.50;;;4.10;;
74551;SDS011;63025;55.472;38.432;2022-10-16T06:45:57;13.02;;;4.38;;
74551;SDS011;63025;55.472;38.432;2022-10-16T06:48:25;7.75;;;4.53;;
74551;SDS011;63025;55.472;38.432;2022-10-16T06:50:55;12.23;;;5.47;;
74551;SDS011;63025;55.472;38.432;2022-10-16T06:53:28;11.40;;;5.80;;
74551;SDS011;63025;55.472;38.432;2022-10-16T06:55:56;11.07;;;4.20;;
74551;SDS011;63025;55.472;38.432;2022-10-16T06:58:23;8.15;;;4.38;;
74551;SDS011;63025;55.472;38.432;2022-10-16T07:00:50;7.95;;;3.65;;
74551;SDS011;63025;55.472;38.432;2022-10-16T07:03:22;7.85;;;3.97;;
74551;SDS011;63025;55.472;38.432;2022-10-16T07:05:48;7.90;;;4.00;;
74551;SDS011;63025;55.472;38.432;2022-10-16T07:08:14;8.07;;;3.38;;
74551;SDS011;63025;55.472;38.432;2022-10-16T07:10:39;7.75;;;3.22;;
74551;SDS011;63025;55.472;38.432;2022-10-16T07:13:05;8.82;;;4.18;;
74551;SDS011;63025;55.472;38.432;2022-10-16T07:15:33;7.40;;;4.20;;
74551;SDS011;63025;55.472;38.432;2022-10-16T07:17:59;6.32;;;3.90;;
74551;SDS011;63025;55.472;38.432;2022-10-16T07:20:25;11.32;;;4.57;;
74551;SDS011;63025;55.472;38.432;2022-10-16T07:22:51;7.43;;;4.20;;
74551;SDS011;63025;55.472;38.432;2022-10-16T07:25:17;9.60;;;4.53;;
74551;SDS011;63025;55.472;38.432;2022-10-16T07:27:43;14.80;;;6.47;;
74551;SDS011;63025;55.472;38.432;2022-10-16T07:30:09;13.20;;;6.50;;
74551;SDS011;63025;55.472;38.432;2022-10-16T07:32:35;8.32;;;4.68;;
74551;SDS011;63025;55.472;38.432;2022-10-16T07:35:02;11.60;;;4.40;;
74551;SDS011;63025;55.472;38.432;2022-10-16T07:37:28;5.88;;;4.13;;
74551;SDS011;63025;55.472;38.432;2022-10-16T07:39:54;7.95;;;4.25;;
74551;SDS011;63025;55.472;38.432;2022-10-16T07:42:20;10.05;;;4.50;;
74551;SDS011;63025;55.472;38.432;2022-10-16T07:44:46;12.85;;;5.75;;
74551;SDS011;63025;55.472;38.432;2022-10-16T07:47:12;8.18;;;4.22;;
74551;SDS011;63025;55.472;38.432;2022-10-16T07:49:38;8.90;;;3.85;;
74551;SDS011;63025;55.472;38.432;2022-10-16T07:52:03;14.18;;;4.30;;
74551;SDS011;63025;55.472;38.432;2022-10-16T07:54:29;8.27;;;4.43;;
74551;SDS011;63025;55.472;38.432;2022-10-16T07:56:55;6.93;;;3.65;;
74551;SDS011;63025;55.472;38.432;2022-10-16T07:59:21;9.73;;;3.72;;
74551;SDS011;63025;55.472;38.432;2022-10-16T08:01:48;9.98;;;3.83;;
74551;SDS011;63025;55.472;38.432;2022-10-16T08:04:15;6.80;;;3.63;;
74551;SDS011;63025;55.472;38.432;2022-10-16T08:06:41;6.95;;;3.60;;
74551;SDS011;63025;55.472;38.432;2022-10-16T08:09:07;7.90;;;5.10;;
74551;SDS011;63025;55.472;38.432;2022-10-16T08:11:33;7.05;;;3.83;;
74551;SDS011;63025;55.472;38.432;2022-10-16T08:14:00;6.53;;;3.58;;
74551;SDS011;63025;55.472;38.432;2022-10-16T08:16:26;6.07;;;3.65;;
74551;SDS011;63025;55.472;38.432;2022-10-16T08:18:51;9.15;;;4.10;;
74551;SDS011;63025;55.472;38.432;2022-10-16T08:21:19;7.88;;;4.30;;
74551;SDS011;63025;55.472;38.432;2022-10-16T08:23:48;9.10;;;5.18;;
74551;SDS011;63025;55.472;38.432;2022-10-16T08:26:18;13.02;;;6.82;;
74551;SDS011;63025;55.472;38.432;2022-10-16T08:28:44;11.68;;;6.35;;
74551;SDS011;63025;55.472;38.432;2022-10-16T08:31:12;9.50;;;4.47;;
74551;SDS011;63025;55.472;38.432;2022-10-16T08:33:40;5.90;;;4.05;;
74551;SDS011;63025;55.472;38.432;2022-10-16T08:36:08;7.65;;;3.08;;
74551;SDS011;63025;55.472;38.432;2022-10-16T08:38:36;7.07;;;3.35;;
74551;SDS011;63025;55.472;38.432;2022-10-16T08:43:47;20.10;;;11.15;;
74551;SDS011;63025;55.472;38.432;2022-10-16T08:49:12;5.75;;;3.20;;
74551;SDS011;63025;55.472;38.432;2022-10-16T08:51:39;6.07;;;2.72;;
74551;SDS011;63025;55.472;38.432;2022-10-16T08:54:28;6.95;;;2.85;;
74551;SDS011;63025;55.472;38.432;2022-10-16T08:57:11;5.55;;;3.22;;
74551;SDS011;63025;55.472;38.432;2022-10-16T08:59:42;7.03;;;3.33;;
74551;SDS011;63025;55.472;38.432;2022-10-16T09:02:43;6.30;;;3.00;;
74551;SDS011;63025;55.472;38.432;2022-10-16T09:08:54;6.60;;;3.10;;
74551;SDS011;63025;55.472;38.432;2022-10-16T09:14:33;7.45;;;3.92;;
74551;SDS011;63025;55.472;38.432;2022-10-16T09:22:45;7.68;;;3.47;;
74551;SDS011;63025;55.472;38.432;2022-10-16T09:25:15;5.63;;;3.22;;
74551;SDS011;63025;55.472;38.432;2022-10-16T09:27:44;7.43;;;3.67;;
74551;SDS011;63025;55.472;38.432;2022-10-16T09:30:19;6.82;;;3.10;;
74551;SDS011;63025;55.472;38.432;2022-10-16T09:32:47;5.72;;;3.65;;
74551;SDS011;63025;55.472;38.432;2022-10-16T09:35:20;12.70;;;5.90;;
74551;SDS011;63025;55.472;38.432;2022-10-16T09:37:51;13.07;;;6.82;;
74551;SDS011;63025;55.472;38.432;2022-10-16T09:40:26;13.95;;;4.93;;
74551;SDS011;63025;55.472;38.432;2022-10-16T09:43:03;10.18;;;4.63;;
74551;SDS011;63025;55.472;38.432;2022-10-16T09:45:42;7.55;;;4.00;;
74551;SDS011;63025;55.472;38.432;2022-10-16T09:48:18;6.05;;;3.22;;
74551;SDS011;63025;55.472;38.432;2022-10-16T09:50:54;5.30;;;3.00;;
74551;SDS011;63025;55.472;38.432;2022-10-16T09:53:26;8.82;;;4.13;;
74551;SDS011;63025;55.472;38.432;2022-10-16T09:56:03;6.72;;;3.63;;
74551;SDS011;63025;55.472;38.432;2022-10-16T09:58:31;5.15;;;3.28;;
74551;SDS011;63025;55.472;38.432;2022-10-16T10:00:58;6.03;;;3.35;;
74551;SDS011;63025;55.472;38.432;2022-10-16T10:03:37;5.93;;;3.50;;
74551;SDS011;63025;55.472;38.432;2022-10-16T10:08:54;6.80;;;3.53;;
74551;SDS011;63025;55.472;38.432;2022-10-16T10:14:25;8.65;;;4.05;;
74551;SDS011;63025;55.472;38.432;2022-10-16T10:17:13;8.38;;;3.88;;
74551;SDS011;63025;55.472;38.432;2022-10-16T10:19:44;6.43;;;3.10;;
74551;SDS011;63025;55.472;38.432;2022-10-16T10:22:16;10.15;;;4.97;;
74551;SDS011;63025;55.472;38.432;2022-10-16T10:24:43;5.70;;;3.10;;
74551;SDS011;63025;55.472;38.432;2022-10-16T10:27:15;6.93;;;3.20;;
74551;SDS011;63025;55.472;38.432;2022-10-16T10:30:33;7.55;;;3.60;;
74551;SDS011;63025;55.472;38.432;2022-10-16T10:32:50;9.02;;;3.63;;
74551;SDS011;63025;55.472;38.432;2022-10-16T10:38:06;7.78;;;3.67;;
74551;SDS011;63025;55.472;38.432;2022-10-16T10:51:40;7.15;;;2.75;;
74551;SDS011;63025;55.472;38.432;2022-10-16T10:56:57;5.78;;;2.97;;
74551;SDS011;63025;55.472;38.432;2022-10-16T11:02:33;9.43;;;4.93;;
74551;SDS011;63025;55.472;38.432;2022-10-16T11:07:39;10.82;;;3.53;;
74551;SDS011;63025;55.472;38.432;2022-10-16T11:10:16;6.72;;;3.40;;
74551;SDS011;63025;55.472;38.432;2022-10-16T11:12:49;7.45;;;3.15;;
74551;SDS011;63025;55.472;38.432;2022-10-16T11:15:35;6.43;;;3.63;;
74551;SDS011;63025;55.472;38.432;2022-10-16T11:18:10;7.78;;;4.05;;
74551;SDS011;63025;55.472;38.432;2022-10-16T11:20:43;9.38;;;4.00;;
74551;SDS011;63025;55.472;38.432;2022-10-16T11:23:16;4.85;;;2.67;;
74551;SDS011;63025;55.472;38.432;2022-10-16T11:25:49;7.38;;;3.85;;
74551;SDS011;63025;55.472;38.432;2022-10-16T11:28:23;5.32;;;2.58;;
74551;SDS011;63025;55.472;38.432;2022-10-16T11:31:07;5.85;;;2.90;;
74551;SDS011;63025;55.472;38.432;2022-10-16T11:36:26;9.18;;;6.82;;
74551;SDS011;63025;55.472;38.432;2022-10-16T11:39:00;5.53;;;3.25;;
74551;SDS011;63025;55.472;38.432;2022-10-16T11:41:32;6.03;;;3.35;;
74551;SDS011;63025;55.472;38.432;2022-10-16T11:49:37;6.35;;;3.50;;
74551;SDS011;63025;55.472;38.432;2022-10-16T11:52:14;7.32;;;4.22;;
74551;SDS011;63025;55.472;38.432;2022-10-16T11:57:34;8.45;;;3.20;;
74551;SDS011;63025;55.472;38.432;2022-10-16T12:03:03;13.90;;;5.57;;
74551;SDS011;63025;55.472;38.432;2022-10-16T12:05:52;10.07;;;4.72;;
74551;SDS011;63025;55.472;38.432;2022-10-16T12:08:20;11.10;;;5.00;;
74551;SDS011;63025;55.472;38.432;2022-10-16T12:10:47;8.98;;;4.07;;
74551;SDS011;63025;55.472;38.432;2022-10-16T12:13:30;7.45;;;3.33;;
74551;SDS011;63025;55.472;38.432;2022-10-16T12:18:36;17.52;;;7.70;;
74551;SDS011;63025;55.472;38.432;2022-10-16T12:21:03;10.85;;;5.22;;
74551;SDS011;63025;55.472;38.432;2022-10-16T12:23:38;15.07;;;7.80;;
74551;SDS011;63025;55.472;38.432;2022-10-16T12:26:12;11.07;;;5.43;;
74551;SDS011;63025;55.472;38.432;2022-10-16T12:28:38;11.70;;;4.80;;
74551;SDS011;63025;55.472;38.432;2022-10-16T12:31:06;8.77;;;3.90;;
74551;SDS011;63025;55.472;38.432;2022-10-16T12:33:36;8.38;;;3.90;;
74551;SDS011;63025;55.472;38.432;2022-10-16T12:36:08;18.75;;;7.70;;
74551;SDS011;63025;55.472;38.432;2022-10-16T12:38:51;18.23;;;10.25;;
74551;SDS011;63025;55.472;38.432;2022-10-16T12:43:52;19.88;;;9.32;;
74551;SDS011;63025;55.472;38.432;2022-10-16T12:46:21;19.98;;;9.35;;
74551;SDS011;63025;55.472;38.432;2022-10-16T12:48:49;20.45;;;8.70;;
74551;SDS011;63025;55.472;38.432;2022-10-16T12:54:03;37.28;;;18.08;;
74551;SDS011;63025;55.472;38.432;2022-10-16T12:59:22;23.40;;;11.63;;
74551;SDS011;63025;55.472;38.432;2022-10-16T13:05:08;7.83;;;4.47;;
74551;SDS011;63025;55.472;38.432;2022-10-16T13:18:22;19.98;;;11.05;;
74551;SDS011;63025;55.472;38.432;2022-10-16T13:23:58;13.38;;;6.20;;
74551;SDS011;63025;55.472;38.432;2022-10-16T13:26:52;10.30;;;4.57;;
74551;SDS011;63025;55.472;38.432;2022-10-16T13:29:36;13.13;;;5.38;;
74551;SDS011;63025;55.472;38.432;2022-10-16T13:32:07;5.88;;;3.50;;
74551;SDS011;63025;55.472;38.432;2022-10-16T13:34:41;9.50;;;4.00;;
74551;SDS011;63025;55.472;38.432;2022-10-16T13:37:19;9.27;;;4.20;;
74551;SDS011;63025;55.472;38.432;2022-10-16T13:39:47;7.75;;;4.30;;
74551;SDS011;63025;55.472;38.432;2022-10-16T13:42:16;6.30;;;2.75;;
74551;SDS011;63025;55.472;38.432;2022-10-16T13:47:19;8.57;;;3.92;;
74551;SDS011;63025;55.472;38.432;2022-10-16T13:49:59;12.48;;;3.45;;
74551;SDS011;63025;55.472;38.432;2022-10-16T13:52:51;13.98;;;5.68;;
74551;SDS011;63025;55.472;38.432;2022-10-16T13:55:17;9.00;;;4.10;;
74551;SDS011;63025;55.472;38.432;2022-10-16T13:57:44;13.57;;;5.97;;
74551;SDS011;63025;55.472;38.432;2022-10-16T14:02:50;14.98;;;6.78;;
74551;SDS011;63025;55.472;38.432;2022-10-16T14:05:26;53.83;;;17.98;;
74551;SDS011;63025;55.472;38.432;2022-10-16T14:07:52;54.22;;;24.58;;
74551;SDS011;63025;55.472;38.432;2022-10-16T14:10:22;40.72;;;18.60;;
74551;SDS011;63025;55.472;38.432;2022-10-16T14:12:54;33.40;;;14.95;;
74551;SDS011;63025;55.472;38.432;2022-10-16T14:15:29;34.88;;;16.23;;
74551;SDS011;63025;55.472;38.432;2022-10-16T14:17:56;18.75;;;8.77;;
74551;SDS011;63025;55.472;38.432;2022-10-16T14:20:24;19.45;;;8.85;;
74551;SDS011;63025;55.472;38.432;2022-10-16T14:23:28;14.25;;;7.72;;
74551;SDS011;63025;55.472;38.432;2022-10-16T14:28:39;16.80;;;8.35;;
74551;SDS011;63025;55.472;38.432;2022-10-16T14:33:58;16.60;;;7.97;;
74551;SDS011;63025;55.472;38.432;2022-10-16T14:36:25;14.77;;;8.50;;
74551;SDS011;63025;55.472;38.432;2022-10-16T14:41:23;15.38;;;7.72;;
74551;SDS011;63025;55.472;38.432;2022-10-16T14:43:50;15.43;;;7.75;;
74551;SDS011;63025;55.472;38.432;2022-10-16T14:46:19;16.17;;;9.93;;
74551;SDS011;63025;55.472;38.432;2022-10-16T14:51:34;16.65;;;9.48;;
74551;SDS011;63025;55.472;38.432;2022-10-16T14:53:59;16.05;;;9.32;;
74551;SDS011;63025;55.472;38.432;2022-10-16T14:56:34;17.15;;;8.68;;
74551;SDS011;63025;55.472;38.432;2022-10-16T14:59:14;19.98;;;10.40;;
74551;SDS011;63025;55.472;38.432;2022-10-16T15:01:44;17.80;;;9.15;;
74551;SDS011;63025;55.472;38.432;2022-10-16T15:04:11;17.63;;;8.13;;
74551;SDS011;63025;55.472;38.432;2022-10-16T15:06:38;14.30;;;7.68;;
74551;SDS011;63025;55.472;38.432;2022-10-16T15:09:04;16.00;;;7.90;;
74551;SDS011;63025;55.472;38.432;2022-10-16T15:11:30;15.50;;;7.88;;
74551;SDS011;63025;55.472;38.432;2022-10-16T15:13:58;13.65;;;7.68;;
74551;SDS011;63025;55.472;38.432;2022-10-16T15:16:24;17.75;;;8.40;;
74551;SDS011;63025;55.472;38.432;2022-10-16T15:18:50;18.08;;;8.95;;
74551;SDS011;63025;55.472;38.432;2022-10-16T15:21:27;19.85;;;9.63;;
74551;SDS011;63025;55.472;38.432;2022-10-16T15:23:54;17.00;;;8.90;;
74551;SDS011;63025;55.472;38.432;2022-10-16T15:26:22;19.60;;;9.75;;
74551;SDS011;63025;55.472;38.432;2022-10-16T15:28:49;16.42;;;9.40;;
74551;SDS011;63025;55.472;38.432;2022-10-16T15:31:15;17.33;;;9.70;;
74551;SDS011;63025;55.472;38.432;2022-10-16T15:33:40;16.05;;;8.95;;
74551;SDS011;63025;55.472;38.432;2022-10-16T15:36:06;18.95;;;10.40;;
74551;SDS011;63025;55.472;38.432;2022-10-16T15:38:33;19.35;;;10.88;;
74551;SDS011;63025;55.472;38.432;2022-10-16T15:40:59;23.92;;;9.90;;
74551;SDS011;63025;55.472;38.432;2022-10-16T15:43:24;18.75;;;10.27;;
74551;SDS011;63025;55.472;38.432;2022-10-16T15:45:58;23.55;;;9.73;;
74551;SDS011;63025;55.472;38.432;2022-10-16T15:48:26;16.60;;;9.70;;
74551;SDS011;63025;55.472;38.432;2022-10-16T15:50:52;16.38;;;9.48;;
74551;SDS011;63025;55.472;38.432;2022-10-16T15:53:18;22.17;;;10.10;;
74551;SDS011;63025;55.472;38.432;2022-10-16T15:55:44;19.27;;;9.13;;
74551;SDS011;63025;55.472;38.432;2022-10-16T15:58:10;21.35;;;9.25;;
74551;SDS011;63025;55.472;38.432;2022-10-16T16:00:36;18.05;;;9.07;;
74551;SDS011;63025;55.472;38.432;2022-10-16T16:03:01;17.83;;;9.48;;
74551;SDS011;63025;55.472;38.432;2022-10-16T16:05:27;16.13;;;7.97;;
74551;SDS011;63025;55.472;38.432;2022-10-16T16:07:53;18.92;;;9.35;;
74551;SDS011;63025;55.472;38.432;2022-10-16T16:10:19;12.50;;;7.20;;
74551;SDS011;63025;55.472;38.432;2022-10-16T16:12:46;16.70;;;7.82;;
74551;SDS011;63025;55.472;38.432;2022-10-16T16:15:17;14.95;;;7.50;;
74551;SDS011;63025;55.472;38.432;2022-10-16T16:17:44;11.82;;;6.05;;
74551;SDS011;63025;55.472;38.432;2022-10-16T16:20:10;10.88;;;5.80;;
74551;SDS011;63025;55.472;38.432;2022-10-16T16:22:36;10.40;;;6.05;;
74551;SDS011;63025;55.472;38.432;2022-10-16T16:25:02;9.55;;;5.95;;
74551;SDS011;63025;55.472;38.432;2022-10-16T16:27:28;10.60;;;6.00;;